sensor_id;sensor_type;location;lat;lon;timestamp;P1;durP1;ratioP1;P2;durP2;ratioP2
13263;SDS011;6700;51.988;7.646;2022-10-16T00:01:17;9.97;;;7.13;;
13263;SDS011;6700;51.988;7.646;2022-10-16T00:03:46;8.33;;;6.80;;
13263;SDS011;6700;51.988;7.646;2022-10-16T00:06:14;8.70;;;6.07;;
13263;SDS011;6700;51.988;7.646;2022-10-16T00:08:42;8.63;;;6.43;;
13263;SDS011;6700;51.988;7.646;2022-10-16T00:11:10;9.93;;;7.17;;
13263;SDS011;6700;51.988;7.646;2022-10-16T00:13:41;8.53;;;6.60;;
13263;SDS011;6700;51.988;7.646;2022-10-16T00:16:10;10.67;;;6.63;;
13263;SDS011;6700;51.988;7.646;2022-10-16T00:18:37;11.13;;;6.13;;
13263;SDS011;6700;51.988;7.646;2022-10-16T00:21:06;10.03;;;6.13;;
13263;SDS011;6700;51.988;7.646;2022-10-16T00:23:35;9.80;;;6.97;;
13263;SDS011;6700;51.988;7.646;2022-10-16T00:26:04;8.87;;;6.50;;
13263;SDS011;6700;51.988;7.646;2022-10-16T00:28:36;12.57;;;7.37;;
13263;SDS011;6700;51.988;7.646;2022-10-16T00:31:03;7.57;;;6.70;;
13263;SDS011;6700;51.988;7.646;2022-10-16T00:33:32;11.57;;;6.17;;
13263;SDS011;6700;51.988;7.646;2022-10-16T00:36:00;9.20;;;6.83;;
13263;SDS011;6700;51.988;7.646;2022-10-16T00:38:28;9.20;;;6.87;;
13263;SDS011;6700;51.988;7.646;2022-10-16T00:40:55;10.17;;;7.00;;
13263;SDS011;6700;51.988;7.646;2022-10-16T00:46:19;10.53;;;7.60;;
13263;SDS011;6700;51.988;7.646;2022-10-16T00:51:25;9.67;;;6.70;;
13263;SDS011;6700;51.988;7.646;2022-10-16T00:53:57;10.90;;;7.87;;
13263;SDS011;6700;51.988;7.646;2022-10-16T00:56:25;11.00;;;6.80;;
13263;SDS011;6700;51.988;7.646;2022-10-16T00:58:52;12.17;;;7.63;;
13263;SDS011;6700;51.988;7.646;2022-10-16T01:01:19;10.93;;;7.63;;
13263;SDS011;6700;51.988;7.646;2022-10-16T01:03:46;21.83;;;8.83;;
13263;SDS011;6700;51.988;7.646;2022-10-16T01:06:21;12.20;;;7.33;;
13263;SDS011;6700;51.988;7.646;2022-10-16T01:14:54;9.93;;;7.27;;
13263;SDS011;6700;51.988;7.646;2022-10-16T01:17:45;12.00;;;7.63;;
13263;SDS011;6700;51.988;7.646;2022-10-16T01:20:25;8.67;;;7.13;;
13263;SDS011;6700;51.988;7.646;2022-10-16T01:31:18;13.60;;;8.43;;
13263;SDS011;6700;51.988;7.646;2022-10-16T01:33:51;16.30;;;7.60;;
13263;SDS011;6700;51.988;7.646;2022-10-16T01:36:28;14.60;;;8.30;;
13263;SDS011;6700;51.988;7.646;2022-10-16T01:39:02;9.00;;;7.87;;
13263;SDS011;6700;51.988;7.646;2022-10-16T01:41:43;11.53;;;8.13;;
13263;SDS011;6700;51.988;7.646;2022-10-16T01:44:16;8.57;;;6.93;;
13263;SDS011;6700;51.988;7.646;2022-10-16T01:46:48;9.10;;;7.73;;
13263;SDS011;6700;51.988;7.646;2022-10-16T01:49:17;10.30;;;7.57;;
13263;SDS011;6700;51.988;7.646;2022-10-16T01:51:47;10.23;;;7.57;;
13263;SDS011;6700;51.988;7.646;2022-10-16T01:54:18;11.47;;;7.27;;
13263;SDS011;6700;51.988;7.646;2022-10-16T01:56:47;9.97;;;7.07;;
13263;SDS011;6700;51.988;7.646;2022-10-16T01:59:16;10.57;;;7.60;;
13263;SDS011;6700;51.988;7.646;2022-10-16T02:01:48;10.73;;;7.13;;
13263;SDS011;6700;51.988;7.646;2022-10-16T02:04:20;10.33;;;6.90;;
13263;SDS011;6700;51.988;7.646;2022-10-16T02:06:55;9.37;;;6.90;;
13263;SDS011;6700;51.988;7.646;2022-10-16T02:09:22;8.67;;;6.70;;
13263;SDS011;6700;51.988;7.646;2022-10-16T02:11:49;9.43;;;6.80;;
13263;SDS011;6700;51.988;7.646;2022-10-16T02:14:19;8.17;;;6.83;;
13263;SDS011;6700;51.988;7.646;2022-10-16T02:16:48;9.30;;;8.13;;
13263;SDS011;6700;51.988;7.646;2022-10-16T02:19:15;9.57;;;7.73;;
13263;SDS011;6700;51.988;7.646;2022-10-16T02:27:18;10.40;;;7.13;;
13263;SDS011;6700;51.988;7.646;2022-10-16T02:30:02;9.80;;;6.60;;
13263;SDS011;6700;51.988;7.646;2022-10-16T02:32:37;10.13;;;6.67;;
13263;SDS011;6700;51.988;7.646;2022-10-16T02:35:08;8.27;;;7.17;;
13263;SDS011;6700;51.988;7.646;2022-10-16T02:37:36;10.67;;;6.90;;
13263;SDS011;6700;51.988;7.646;2022-10-16T02:40:05;9.33;;;6.73;;
13263;SDS011;6700;51.988;7.646;2022-10-16T02:42:36;9.07;;;7.27;;
13263;SDS011;6700;51.988;7.646;2022-10-16T02:45:05;7.73;;;6.93;;
13263;SDS011;6700;51.988;7.646;2022-10-16T02:47:33;10.07;;;6.33;;
13263;SDS011;6700;51.988;7.646;2022-10-16T02:50:00;11.57;;;7.17;;
13263;SDS011;6700;51.988;7.646;2022-10-16T02:52:27;9.60;;;6.07;;
13263;SDS011;6700;51.988;7.646;2022-10-16T02:54:54;9.60;;;6.73;;
13263;SDS011;6700;51.988;7.646;2022-10-16T02:57:21;9.43;;;6.93;;
13263;SDS011;6700;51.988;7.646;2022-10-16T02:59:48;16.30;;;7.77;;
13263;SDS011;6700;51.988;7.646;2022-10-16T03:02:15;11.57;;;7.70;;
13263;SDS011;6700;51.988;7.646;2022-10-16T03:04:42;7.90;;;7.10;;
13263;SDS011;6700;51.988;7.646;2022-10-16T03:07:08;8.63;;;7.03;;
13263;SDS011;6700;51.988;7.646;2022-10-16T03:09:35;9.50;;;7.13;;
13263;SDS011;6700;51.988;7.646;2022-10-16T03:12:02;8.07;;;6.73;;
13263;SDS011;6700;51.988;7.646;2022-10-16T03:14:29;12.60;;;6.87;;
13263;SDS011;6700;51.988;7.646;2022-10-16T03:16:56;8.30;;;6.37;;
13263;SDS011;6700;51.988;7.646;2022-10-16T03:19:22;9.67;;;7.27;;
13263;SDS011;6700;51.988;7.646;2022-10-16T03:21:50;8.47;;;6.40;;
13263;SDS011;6700;51.988;7.646;2022-10-16T03:24:17;6.60;;;6.00;;
13263;SDS011;6700;51.988;7.646;2022-10-16T03:26:44;8.00;;;6.30;;
13263;SDS011;6700;51.988;7.646;2022-10-16T03:29:10;10.27;;;6.97;;
13263;SDS011;6700;51.988;7.646;2022-10-16T03:31:37;10.43;;;6.07;;
13263;SDS011;6700;51.988;7.646;2022-10-16T03:34:04;6.73;;;6.07;;
13263;SDS011;6700;51.988;7.646;2022-10-16T03:36:31;8.30;;;6.37;;
13263;SDS011;6700;51.988;7.646;2022-10-16T03:38:57;9.83;;;5.93;;
13263;SDS011;6700;51.988;7.646;2022-10-16T03:41:24;7.10;;;5.20;;
13263;SDS011;6700;51.988;7.646;2022-10-16T03:43:51;8.17;;;5.87;;
13263;SDS011;6700;51.988;7.646;2022-10-16T03:46:18;6.77;;;5.20;;
13263;SDS011;6700;51.988;7.646;2022-10-16T03:48:45;7.63;;;5.77;;
13263;SDS011;6700;51.988;7.646;2022-10-16T03:51:11;8.27;;;5.63;;
13263;SDS011;6700;51.988;7.646;2022-10-16T03:53:38;10.57;;;5.90;;
13263;SDS011;6700;51.988;7.646;2022-10-16T03:56:05;9.93;;;5.87;;
13263;SDS011;6700;51.988;7.646;2022-10-16T03:58:32;7.10;;;5.50;;
13263;SDS011;6700;51.988;7.646;2022-10-16T04:00:59;9.07;;;6.73;;
13263;SDS011;6700;51.988;7.646;2022-10-16T04:03:26;8.10;;;6.13;;
13263;SDS011;6700;51.988;7.646;2022-10-16T04:05:52;5.80;;;5.30;;
13263;SDS011;6700;51.988;7.646;2022-10-16T04:08:19;10.70;;;6.03;;
13263;SDS011;6700;51.988;7.646;2022-10-16T04:10:46;12.23;;;6.23;;
13263;SDS011;6700;51.988;7.646;2022-10-16T04:13:13;7.20;;;6.20;;
13263;SDS011;6700;51.988;7.646;2022-10-16T04:15:40;8.73;;;5.97;;
13263;SDS011;6700;51.988;7.646;2022-10-16T04:18:07;8.70;;;6.27;;
13263;SDS011;6700;51.988;7.646;2022-10-16T04:20:34;6.33;;;5.43;;
13263;SDS011;6700;51.988;7.646;2022-10-16T04:23:01;7.53;;;5.80;;
13263;SDS011;6700;51.988;7.646;2022-10-16T04:25:27;8.17;;;5.90;;
13263;SDS011;6700;51.988;7.646;2022-10-16T04:27:54;8.73;;;6.30;;
13263;SDS011;6700;51.988;7.646;2022-10-16T04:30:22;14.30;;;5.93;;
13263;SDS011;6700;51.988;7.646;2022-10-16T04:32:49;10.33;;;6.27;;
13263;SDS011;6700;51.988;7.646;2022-10-16T04:35:17;8.67;;;5.87;;
13263;SDS011;6700;51.988;7.646;2022-10-16T04:37:45;8.00;;;6.40;;
13263;SDS011;6700;51.988;7.646;2022-10-16T04:40:12;6.10;;;5.30;;
13263;SDS011;6700;51.988;7.646;2022-10-16T04:42:39;6.60;;;5.20;;
13263;SDS011;6700;51.988;7.646;2022-10-16T04:45:07;6.20;;;4.93;;
13263;SDS011;6700;51.988;7.646;2022-10-16T04:47:39;5.87;;;5.37;;
13263;SDS011;6700;51.988;7.646;2022-10-16T04:50:06;5.63;;;5.10;;
13263;SDS011;6700;51.988;7.646;2022-10-16T04:52:33;6.67;;;5.33;;
13263;SDS011;6700;51.988;7.646;2022-10-16T04:55:05;5.97;;;5.30;;
13263;SDS011;6700;51.988;7.646;2022-10-16T04:57:33;7.57;;;5.20;;
13263;SDS011;6700;51.988;7.646;2022-10-16T05:00:00;8.50;;;5.17;;
13263;SDS011;6700;51.988;7.646;2022-10-16T05:02:26;7.57;;;5.27;;
13263;SDS011;6700;51.988;7.646;2022-10-16T05:04:53;7.67;;;5.10;;
13263;SDS011;6700;51.988;7.646;2022-10-16T05:07:20;6.07;;;5.17;;
13263;SDS011;6700;51.988;7.646;2022-10-16T05:09:47;6.30;;;4.90;;
13263;SDS011;6700;51.988;7.646;2022-10-16T05:12:13;8.60;;;4.90;;
13263;SDS011;6700;51.988;7.646;2022-10-16T05:14:40;6.07;;;4.83;;
13263;SDS011;6700;51.988;7.646;2022-10-16T05:17:07;6.00;;;4.73;;
13263;SDS011;6700;51.988;7.646;2022-10-16T05:19:34;6.53;;;4.43;;
13263;SDS011;6700;51.988;7.646;2022-10-16T05:22:01;6.10;;;4.63;;
13263;SDS011;6700;51.988;7.646;2022-10-16T05:24:27;7.70;;;4.50;;
13263;SDS011;6700;51.988;7.646;2022-10-16T05:26:54;5.87;;;4.50;;
13263;SDS011;6700;51.988;7.646;2022-10-16T05:29:21;4.40;;;3.90;;
13263;SDS011;6700;51.988;7.646;2022-10-16T05:31:51;4.73;;;4.30;;
13263;SDS011;6700;51.988;7.646;2022-10-16T05:34:19;5.30;;;4.27;;
13263;SDS011;6700;51.988;7.646;2022-10-16T05:36:46;4.70;;;4.23;;
13263;SDS011;6700;51.988;7.646;2022-10-16T05:39:14;5.63;;;3.70;;
13263;SDS011;6700;51.988;7.646;2022-10-16T05:41:41;5.53;;;4.07;;
13263;SDS011;6700;51.988;7.646;2022-10-16T05:44:08;6.00;;;3.97;;
13263;SDS011;6700;51.988;7.646;2022-10-16T05:46:36;4.50;;;3.63;;
13263;SDS011;6700;51.988;7.646;2022-10-16T05:49:02;5.73;;;4.03;;
13263;SDS011;6700;51.988;7.646;2022-10-16T05:51:29;5.50;;;3.70;;
13263;SDS011;6700;51.988;7.646;2022-10-16T05:53:56;5.00;;;3.40;;
13263;SDS011;6700;51.988;7.646;2022-10-16T05:56:23;3.83;;;3.23;;
13263;SDS011;6700;51.988;7.646;2022-10-16T05:58:49;4.10;;;3.73;;
13263;SDS011;6700;51.988;7.646;2022-10-16T06:01:17;3.87;;;3.10;;
13263;SDS011;6700;51.988;7.646;2022-10-16T06:03:46;6.93;;;3.77;;
13263;SDS011;6700;51.988;7.646;2022-10-16T06:06:14;4.33;;;3.60;;
13263;SDS011;6700;51.988;7.646;2022-10-16T06:08:43;4.57;;;3.40;;
13263;SDS011;6700;51.988;7.646;2022-10-16T06:11:12;4.40;;;3.47;;
13263;SDS011;6700;51.988;7.646;2022-10-16T06:13:44;4.30;;;3.63;;
13263;SDS011;6700;51.988;7.646;2022-10-16T06:16:12;4.43;;;3.30;;
13263;SDS011;6700;51.988;7.646;2022-10-16T06:18:39;7.07;;;3.30;;
13263;SDS011;6700;51.988;7.646;2022-10-16T06:21:10;3.70;;;3.03;;
13263;SDS011;6700;51.988;7.646;2022-10-16T06:23:38;3.00;;;2.80;;
13263;SDS011;6700;51.988;7.646;2022-10-16T06:26:09;3.93;;;2.83;;
13263;SDS011;6700;51.988;7.646;2022-10-16T06:28:37;13.30;;;3.20;;
13263;SDS011;6700;51.988;7.646;2022-10-16T06:31:06;4.87;;;3.43;;
13263;SDS011;6700;51.988;7.646;2022-10-16T06:33:34;3.07;;;2.80;;
13263;SDS011;6700;51.988;7.646;2022-10-16T06:38:33;3.30;;;2.70;;
13263;SDS011;6700;51.988;7.646;2022-10-16T06:41:00;2.70;;;2.50;;
13263;SDS011;6700;51.988;7.646;2022-10-16T06:43:28;3.07;;;2.70;;
13263;SDS011;6700;51.988;7.646;2022-10-16T06:45:59;4.00;;;2.70;;
13263;SDS011;6700;51.988;7.646;2022-10-16T06:48:26;3.63;;;2.67;;
13263;SDS011;6700;51.988;7.646;2022-10-16T06:50:57;6.83;;;3.23;;
13263;SDS011;6700;51.988;7.646;2022-10-16T06:53:25;3.00;;;2.80;;
13263;SDS011;6700;51.988;7.646;2022-10-16T06:55:54;3.63;;;2.93;;
13263;SDS011;6700;51.988;7.646;2022-10-16T06:58:21;4.03;;;2.63;;
13263;SDS011;6700;51.988;7.646;2022-10-16T07:00:48;8.40;;;3.00;;
13263;SDS011;6700;51.988;7.646;2022-10-16T07:03:21;4.17;;;2.77;;
13263;SDS011;6700;51.988;7.646;2022-10-16T07:05:48;4.80;;;3.07;;
13263;SDS011;6700;51.988;7.646;2022-10-16T07:08:14;3.10;;;2.80;;
13263;SDS011;6700;51.988;7.646;2022-10-16T07:10:41;3.97;;;2.70;;
13263;SDS011;6700;51.988;7.646;2022-10-16T07:13:08;3.47;;;2.80;;
13263;SDS011;6700;51.988;7.646;2022-10-16T07:15:35;4.10;;;2.80;;
13263;SDS011;6700;51.988;7.646;2022-10-16T07:18:01;3.47;;;2.47;;
13263;SDS011;6700;51.988;7.646;2022-10-16T07:20:28;3.97;;;2.90;;
13263;SDS011;6700;51.988;7.646;2022-10-16T07:22:55;2.33;;;2.13;;
13263;SDS011;6700;51.988;7.646;2022-10-16T07:25:22;3.10;;;2.80;;
13263;SDS011;6700;51.988;7.646;2022-10-16T07:27:48;3.40;;;2.77;;
13263;SDS011;6700;51.988;7.646;2022-10-16T07:30:15;3.20;;;2.90;;
13263;SDS011;6700;51.988;7.646;2022-10-16T07:32:42;3.30;;;3.00;;
13263;SDS011;6700;51.988;7.646;2022-10-16T07:35:09;2.87;;;2.30;;
13263;SDS011;6700;51.988;7.646;2022-10-16T07:37:36;4.90;;;2.70;;
13263;SDS011;6700;51.988;7.646;2022-10-16T07:40:02;4.33;;;2.47;;
13263;SDS011;6700;51.988;7.646;2022-10-16T07:42:30;5.53;;;2.20;;
13263;SDS011;6700;51.988;7.646;2022-10-16T07:44:56;5.27;;;2.60;;
13263;SDS011;6700;51.988;7.646;2022-10-16T07:47:23;2.63;;;2.43;;
13263;SDS011;6700;51.988;7.646;2022-10-16T07:49:50;3.20;;;2.83;;
13263;SDS011;6700;51.988;7.646;2022-10-16T07:52:17;3.47;;;3.07;;
13263;SDS011;6700;51.988;7.646;2022-10-16T07:54:44;3.83;;;2.87;;
13263;SDS011;6700;51.988;7.646;2022-10-16T07:57:11;6.00;;;2.80;;
13263;SDS011;6700;51.988;7.646;2022-10-16T07:59:38;2.83;;;2.20;;
13263;SDS011;6700;51.988;7.646;2022-10-16T08:02:04;4.27;;;2.63;;
13263;SDS011;6700;51.988;7.646;2022-10-16T08:04:31;2.80;;;2.53;;
13263;SDS011;6700;51.988;7.646;2022-10-16T08:06:58;2.90;;;2.63;;
13263;SDS011;6700;51.988;7.646;2022-10-16T08:09:25;3.17;;;2.47;;
13263;SDS011;6700;51.988;7.646;2022-10-16T08:11:51;2.93;;;2.67;;
13263;SDS011;6700;51.988;7.646;2022-10-16T08:14:18;3.37;;;2.53;;
13263;SDS011;6700;51.988;7.646;2022-10-16T08:16:45;2.80;;;2.60;;
13263;SDS011;6700;51.988;7.646;2022-10-16T08:19:12;6.17;;;2.60;;
13263;SDS011;6700;51.988;7.646;2022-10-16T08:21:39;2.33;;;2.13;;
13263;SDS011;6700;51.988;7.646;2022-10-16T08:24:05;5.27;;;2.47;;
13263;SDS011;6700;51.988;7.646;2022-10-16T08:26:32;3.97;;;2.37;;
13263;SDS011;6700;51.988;7.646;2022-10-16T08:28:59;4.30;;;2.50;;
13263;SDS011;6700;51.988;7.646;2022-10-16T08:31:26;5.70;;;2.47;;
13263;SDS011;6700;51.988;7.646;2022-10-16T08:33:53;4.50;;;2.60;;
13263;SDS011;6700;51.988;7.646;2022-10-16T08:36:20;3.67;;;2.57;;
13263;SDS011;6700;51.988;7.646;2022-10-16T08:38:47;6.13;;;2.73;;
13263;SDS011;6700;51.988;7.646;2022-10-16T08:49:50;4.40;;;2.30;;
13263;SDS011;6700;51.988;7.646;2022-10-16T08:52:23;6.00;;;2.23;;
13263;SDS011;6700;51.988;7.646;2022-10-16T08:54:55;3.83;;;2.07;;
13263;SDS011;6700;51.988;7.646;2022-10-16T08:57:24;5.93;;;2.20;;
13263;SDS011;6700;51.988;7.646;2022-10-16T08:59:53;3.30;;;2.17;;
13263;SDS011;6700;51.988;7.646;2022-10-16T09:02:27;5.17;;;2.20;;
13263;SDS011;6700;51.988;7.646;2022-10-16T09:07:39;6.70;;;2.40;;
13263;SDS011;6700;51.988;7.646;2022-10-16T09:13:15;4.17;;;2.10;;
13263;SDS011;6700;51.988;7.646;2022-10-16T09:21:46;3.77;;;1.80;;
13263;SDS011;6700;51.988;7.646;2022-10-16T09:24:17;8.43;;;2.43;;
13263;SDS011;6700;51.988;7.646;2022-10-16T09:26:52;9.40;;;2.10;;
13263;SDS011;6700;51.988;7.646;2022-10-16T09:29:20;2.37;;;1.63;;
13263;SDS011;6700;51.988;7.646;2022-10-16T09:31:47;4.10;;;1.90;;
13263;SDS011;6700;51.988;7.646;2022-10-16T09:34:20;6.03;;;3.30;;
13263;SDS011;6700;51.988;7.646;2022-10-16T09:36:55;5.33;;;2.27;;
13263;SDS011;6700;51.988;7.646;2022-10-16T09:39:23;4.23;;;2.50;;
13263;SDS011;6700;51.988;7.646;2022-10-16T09:41:50;2.37;;;1.80;;
13263;SDS011;6700;51.988;7.646;2022-10-16T09:47:12;6.13;;;2.33;;
13263;SDS011;6700;51.988;7.646;2022-10-16T09:49:50;3.50;;;2.30;;
13263;SDS011;6700;51.988;7.646;2022-10-16T09:52:28;3.63;;;1.93;;
13263;SDS011;6700;51.988;7.646;2022-10-16T09:54:57;2.43;;;1.70;;
13263;SDS011;6700;51.988;7.646;2022-10-16T09:57:29;5.57;;;1.80;;
13263;SDS011;6700;51.988;7.646;2022-10-16T09:59:57;5.23;;;2.10;;
13263;SDS011;6700;51.988;7.646;2022-10-16T10:02:34;4.97;;;1.77;;
13263;SDS011;6700;51.988;7.646;2022-10-16T10:05:04;5.80;;;2.13;;
13263;SDS011;6700;51.988;7.646;2022-10-16T10:07:42;5.93;;;1.80;;
13263;SDS011;6700;51.988;7.646;2022-10-16T10:10:28;2.87;;;1.70;;
13263;SDS011;6700;51.988;7.646;2022-10-16T10:12:56;2.23;;;1.83;;
13263;SDS011;6700;51.988;7.646;2022-10-16T10:15:23;4.23;;;1.80;;
13263;SDS011;6700;51.988;7.646;2022-10-16T10:20:30;2.53;;;2.30;;
13263;SDS011;6700;51.988;7.646;2022-10-16T10:23:01;4.60;;;3.10;;
13263;SDS011;6700;51.988;7.646;2022-10-16T10:33:57;5.73;;;3.00;;
13263;SDS011;6700;51.988;7.646;2022-10-16T10:36:44;3.47;;;2.97;;
13263;SDS011;6700;51.988;7.646;2022-10-16T10:39:35;8.23;;;2.80;;
13263;SDS011;6700;51.988;7.646;2022-10-16T10:42:12;4.03;;;2.40;;
13263;SDS011;6700;51.988;7.646;2022-10-16T10:44:52;3.23;;;1.90;;
13263;SDS011;6700;51.988;7.646;2022-10-16T10:50:12;2.10;;;1.47;;
13263;SDS011;6700;51.988;7.646;2022-10-16T10:52:54;3.93;;;1.60;;
13263;SDS011;6700;51.988;7.646;2022-10-16T11:06:40;4.03;;;1.77;;
13263;SDS011;6700;51.988;7.646;2022-10-16T11:09:23;3.17;;;1.70;;
13263;SDS011;6700;51.988;7.646;2022-10-16T11:12:09;4.87;;;1.70;;
13263;SDS011;6700;51.988;7.646;2022-10-16T11:15:01;1.90;;;1.23;;
13263;SDS011;6700;51.988;7.646;2022-10-16T11:17:44;3.97;;;1.70;;
13263;SDS011;6700;51.988;7.646;2022-10-16T11:20:28;2.37;;;1.47;;
13263;SDS011;6700;51.988;7.646;2022-10-16T11:23:04;4.10;;;1.40;;
13263;SDS011;6700;51.988;7.646;2022-10-16T11:25:44;3.90;;;1.53;;
13263;SDS011;6700;51.988;7.646;2022-10-16T11:31:07;2.10;;;1.33;;
13263;SDS011;6700;51.988;7.646;2022-10-16T11:33:39;4.30;;;1.50;;
13263;SDS011;6700;51.988;7.646;2022-10-16T11:36:39;4.57;;;1.90;;
13263;SDS011;6700;51.988;7.646;2022-10-16T11:39:26;4.70;;;1.93;;
13263;SDS011;6700;51.988;7.646;2022-10-16T11:42:00;11.17;;;1.93;;
13263;SDS011;6700;51.988;7.646;2022-10-16T11:45:09;6.23;;;1.67;;
13263;SDS011;6700;51.988;7.646;2022-10-16T11:48:15;2.70;;;1.27;;
13263;SDS011;6700;51.988;7.646;2022-10-16T11:50:57;4.83;;;1.87;;
13263;SDS011;6700;51.988;7.646;2022-10-16T11:56:30;3.17;;;1.60;;
13263;SDS011;6700;51.988;7.646;2022-10-16T11:59:05;3.57;;;1.70;;
13263;SDS011;6700;51.988;7.646;2022-10-16T12:02:15;3.10;;;1.87;;
13263;SDS011;6700;51.988;7.646;2022-10-16T12:05:18;3.00;;;1.40;;
13263;SDS011;6700;51.988;7.646;2022-10-16T12:08:15;3.07;;;1.33;;
13263;SDS011;6700;51.988;7.646;2022-10-16T12:10:44;2.90;;;1.80;;
13263;SDS011;6700;51.988;7.646;2022-10-16T12:18:40;2.20;;;1.40;;
13263;SDS011;6700;51.988;7.646;2022-10-16T12:21:15;5.77;;;1.93;;
13263;SDS011;6700;51.988;7.646;2022-10-16T12:26:25;2.27;;;1.90;;
13263;SDS011;6700;51.988;7.646;2022-10-16T12:28:53;4.27;;;1.70;;
13263;SDS011;6700;51.988;7.646;2022-10-16T12:31:21;1.20;;;1.10;;
13263;SDS011;6700;51.988;7.646;2022-10-16T12:34:00;4.90;;;1.53;;
13263;SDS011;6700;51.988;7.646;2022-10-16T12:36:32;4.83;;;1.40;;
13263;SDS011;6700;51.988;7.646;2022-10-16T12:39:00;6.73;;;1.67;;
13263;SDS011;6700;51.988;7.646;2022-10-16T12:41:36;3.00;;;1.47;;
13263;SDS011;6700;51.988;7.646;2022-10-16T12:44:20;3.67;;;1.67;;
13263;SDS011;6700;51.988;7.646;2022-10-16T12:46:53;6.20;;;1.43;;
13263;SDS011;6700;51.988;7.646;2022-10-16T12:49:30;2.83;;;0.93;;
13263;SDS011;6700;51.988;7.646;2022-10-16T12:51:59;2.93;;;1.30;;
13263;SDS011;6700;51.988;7.646;2022-10-16T13:00:41;5.13;;;1.83;;
13263;SDS011;6700;51.988;7.646;2022-10-16T13:06:25;4.83;;;1.53;;
13263;SDS011;6700;51.988;7.646;2022-10-16T13:09:04;7.23;;;1.90;;
13263;SDS011;6700;51.988;7.646;2022-10-16T13:15:25;5.43;;;1.93;;
13263;SDS011;6700;51.988;7.646;2022-10-16T13:17:59;2.90;;;1.57;;
13263;SDS011;6700;51.988;7.646;2022-10-16T13:23:25;3.97;;;1.70;;
13263;SDS011;6700;51.988;7.646;2022-10-16T13:29:05;3.13;;;1.53;;
13263;SDS011;6700;51.988;7.646;2022-10-16T13:31:32;3.70;;;1.30;;
13263;SDS011;6700;51.988;7.646;2022-10-16T13:34:00;2.83;;;1.30;;
13263;SDS011;6700;51.988;7.646;2022-10-16T13:36:29;5.37;;;2.30;;
13263;SDS011;6700;51.988;7.646;2022-10-16T13:39:01;2.73;;;1.63;;
13263;SDS011;6700;51.988;7.646;2022-10-16T13:41:38;4.17;;;1.53;;
13263;SDS011;6700;51.988;7.646;2022-10-16T13:44:11;2.83;;;1.30;;
13263;SDS011;6700;51.988;7.646;2022-10-16T13:46:42;3.97;;;1.30;;
13263;SDS011;6700;51.988;7.646;2022-10-16T13:49:13;5.13;;;1.33;;
13263;SDS011;6700;51.988;7.646;2022-10-16T13:51:47;4.07;;;1.40;;
13263;SDS011;6700;51.988;7.646;2022-10-16T13:54:21;2.60;;;1.60;;
13263;SDS011;6700;51.988;7.646;2022-10-16T13:56:48;2.37;;;1.30;;
13263;SDS011;6700;51.988;7.646;2022-10-16T13:59:34;2.47;;;1.40;;
13263;SDS011;6700;51.988;7.646;2022-10-16T14:02:08;4.50;;;1.60;;
13263;SDS011;6700;51.988;7.646;2022-10-16T14:04:43;5.63;;;2.43;;
13263;SDS011;6700;51.988;7.646;2022-10-16T14:07:13;2.17;;;1.60;;
13263;SDS011;6700;51.988;7.646;2022-10-16T14:09:48;4.77;;;1.97;;
13263;SDS011;6700;51.988;7.646;2022-10-16T14:12:16;3.13;;;1.63;;
13263;SDS011;6700;51.988;7.646;2022-10-16T14:14:44;7.37;;;1.50;;
13263;SDS011;6700;51.988;7.646;2022-10-16T14:17:27;3.20;;;1.03;;
13263;SDS011;6700;51.988;7.646;2022-10-16T14:19:58;4.43;;;1.73;;
13263;SDS011;6700;51.988;7.646;2022-10-16T14:22:35;6.13;;;1.70;;
13263;SDS011;6700;51.988;7.646;2022-10-16T14:27:45;2.33;;;1.27;;
13263;SDS011;6700;51.988;7.646;2022-10-16T14:30:23;7.73;;;1.70;;
13263;SDS011;6700;51.988;7.646;2022-10-16T14:35:31;6.07;;;1.77;;
13263;SDS011;6700;51.988;7.646;2022-10-16T14:38:03;4.17;;;1.77;;
13263;SDS011;6700;51.988;7.646;2022-10-16T14:40:35;3.60;;;1.43;;
13263;SDS011;6700;51.988;7.646;2022-10-16T14:43:03;3.00;;;1.50;;
13263;SDS011;6700;51.988;7.646;2022-10-16T14:45:32;3.57;;;1.20;;
13263;SDS011;6700;51.988;7.646;2022-10-16T14:48:01;10.07;;;1.70;;
13263;SDS011;6700;51.988;7.646;2022-10-16T14:50:32;2.93;;;1.63;;
13263;SDS011;6700;51.988;7.646;2022-10-16T14:52:59;3.33;;;1.80;;
13263;SDS011;6700;51.988;7.646;2022-10-16T14:55:26;2.60;;;1.63;;
13263;SDS011;6700;51.988;7.646;2022-10-16T14:57:53;2.63;;;1.40;;
13263;SDS011;6700;51.988;7.646;2022-10-16T15:00:25;2.07;;;1.47;;
13263;SDS011;6700;51.988;7.646;2022-10-16T15:02:54;4.73;;;1.53;;
13263;SDS011;6700;51.988;7.646;2022-10-16T15:05:22;2.80;;;1.67;;
13263;SDS011;6700;51.988;7.646;2022-10-16T15:07:51;4.03;;;1.50;;
13263;SDS011;6700;51.988;7.646;2022-10-16T15:10:21;5.40;;;1.73;;
13263;SDS011;6700;51.988;7.646;2022-10-16T15:12:49;4.97;;;1.87;;
13263;SDS011;6700;51.988;7.646;2022-10-16T15:15:21;6.23;;;1.97;;
13263;SDS011;6700;51.988;7.646;2022-10-16T15:17:50;8.53;;;2.50;;
13263;SDS011;6700;51.988;7.646;2022-10-16T15:20:31;4.87;;;1.40;;
13263;SDS011;6700;51.988;7.646;2022-10-16T15:23:01;4.73;;;1.63;;
13263;SDS011;6700;51.988;7.646;2022-10-16T15:25:50;5.90;;;1.47;;
13263;SDS011;6700;51.988;7.646;2022-10-16T15:28:19;4.27;;;2.17;;
13263;SDS011;6700;51.988;7.646;2022-10-16T15:30:48;5.83;;;1.90;;
13263;SDS011;6700;51.988;7.646;2022-10-16T15:33:24;5.53;;;1.83;;
13263;SDS011;6700;51.988;7.646;2022-10-16T15:35:54;3.43;;;1.80;;
13263;SDS011;6700;51.988;7.646;2022-10-16T15:38:21;7.50;;;1.63;;
13263;SDS011;6700;51.988;7.646;2022-10-16T15:40:49;4.97;;;2.07;;
13263;SDS011;6700;51.988;7.646;2022-10-16T15:43:16;7.97;;;6.23;;
13263;SDS011;6700;51.988;7.646;2022-10-16T15:45:44;15.50;;;11.80;;
13263;SDS011;6700;51.988;7.646;2022-10-16T15:48:31;22.10;;;15.33;;
13263;SDS011;6700;51.988;7.646;2022-10-16T15:50:59;39.60;;;28.43;;
13263;SDS011;6700;51.988;7.646;2022-10-16T15:53:30;36.00;;;28.73;;
13263;SDS011;6700;51.988;7.646;2022-10-16T15:55:57;38.37;;;28.77;;
13263;SDS011;6700;51.988;7.646;2022-10-16T15:58:23;32.73;;;24.67;;
13263;SDS011;6700;51.988;7.646;2022-10-16T16:00:54;31.00;;;22.43;;
13263;SDS011;6700;51.988;7.646;2022-10-16T16:03:22;11.60;;;8.33;;
13263;SDS011;6700;51.988;7.646;2022-10-16T16:05:49;13.90;;;10.17;;
13263;SDS011;6700;51.988;7.646;2022-10-16T16:08:15;12.83;;;9.63;;
13263;SDS011;6700;51.988;7.646;2022-10-16T16:10:42;7.10;;;4.57;;
13263;SDS011;6700;51.988;7.646;2022-10-16T16:13:09;5.90;;;5.23;;
13263;SDS011;6700;51.988;7.646;2022-10-16T16:15:40;6.50;;;4.20;;
13263;SDS011;6700;51.988;7.646;2022-10-16T16:18:06;9.77;;;7.30;;
13263;SDS011;6700;51.988;7.646;2022-10-16T16:20:36;6.27;;;4.57;;
13263;SDS011;6700;51.988;7.646;2022-10-16T16:23:02;7.03;;;5.10;;
13263;SDS011;6700;51.988;7.646;2022-10-16T16:25:29;10.93;;;5.30;;
13263;SDS011;6700;51.988;7.646;2022-10-16T16:27:56;6.90;;;5.60;;
13263;SDS011;6700;51.988;7.646;2022-10-16T16:30:23;7.23;;;5.70;;
13263;SDS011;6700;51.988;7.646;2022-10-16T16:32:53;8.37;;;5.33;;
13263;SDS011;6700;51.988;7.646;2022-10-16T16:35:20;8.73;;;5.13;;
13263;SDS011;6700;51.988;7.646;2022-10-16T16:37:49;7.97;;;5.27;;
13263;SDS011;6700;51.988;7.646;2022-10-16T16:40:17;8.50;;;5.83;;
13263;SDS011;6700;51.988;7.646;2022-10-16T16:42:49;5.63;;;4.80;;
13263;SDS011;6700;51.988;7.646;2022-10-16T16:45:22;4.70;;;3.90;;
13263;SDS011;6700;51.988;7.646;2022-10-16T16:47:54;5.87;;;4.20;;
13263;SDS011;6700;51.988;7.646;2022-10-16T16:50:21;5.73;;;4.47;;
13263;SDS011;6700;51.988;7.646;2022-10-16T16:52:48;5.50;;;4.43;;
13263;SDS011;6700;51.988;7.646;2022-10-16T16:55:14;8.47;;;4.20;;
13263;SDS011;6700;51.988;7.646;2022-10-16T16:57:41;5.20;;;4.70;;
13263;SDS011;6700;51.988;7.646;2022-10-16T17:00:08;8.87;;;4.93;;
13263;SDS011;6700;51.988;7.646;2022-10-16T17:02:35;10.23;;;4.77;;
13263;SDS011;6700;51.988;7.646;2022-10-16T17:05:02;7.20;;;5.33;;
13263;SDS011;6700;51.988;7.646;2022-10-16T17:07:30;8.23;;;4.80;;
13263;SDS011;6700;51.988;7.646;2022-10-16T17:09:59;10.67;;;5.33;;
13263;SDS011;6700;51.988;7.646;2022-10-16T17:12:28;10.10;;;5.00;;